Arnold, Illinois
Current Conditions -  °F | °C
As of 9:55 AM on Wednesday 26 Nov 2014 (Local Time) from KIJX Reporting Station
Overcast Overcast  
Wind Chill: 23°   Ceiling: 6500
Heat Index: 32°   Visibility: 10mi
Dew Point: 29°   Wind: 13mph
Humidity: 86%   Direction: 120°ESE
Pressure: 30.04"   Gusts: NA
Location:  39.7413°N, 90.2138°W
Report Text: KIJX 261555Z AUTO 12011KT 10SM OVC065 00/M02 A3004 RMK AO2 T00021019
Loading
Personal Weather Stations






























Interactive Weather Map New forecast layout! Learn more

10-Day Weather Forecast

Advertisements
Track Severe Weather on mobile